createdAt,value
2023-04-17T00:01:55.404Z,100936.16
2023-04-17T00:04:22.082Z,100936.94
2023-04-17T00:06:48.678Z,100936.16
2023-04-17T00:09:15.181Z,100933.38
2023-04-17T00:11:41.584Z,100925.81
2023-04-17T00:14:08.841Z,100931.38
2023-04-17T00:16:35.369Z,100929.38
2023-04-17T00:19:01.806Z,100931.38
2023-04-17T00:21:30.164Z,100926.59
2023-04-17T00:23:58.490Z,100926.59
2023-04-17T00:26:26.759Z,100926.59
2023-04-17T00:28:55.932Z,100932.16
2023-04-17T00:31:25.121Z,100934.16
2023-04-17T00:33:51.501Z,100928.22
2023-04-17T00:36:20.671Z,100928.59
2023-04-17T00:38:47.137Z,100934.16
2023-04-17T00:41:13.604Z,100938.56
2023-04-17T00:43:42.828Z,100938.56
2023-04-17T00:46:12.089Z,100943.31
2023-04-17T00:48:40.353Z,100935.78
2023-04-17T00:51:06.767Z,100939.34
2023-04-17T00:53:35.051Z,100941.34
2023-04-17T00:56:04.248Z,100943.31
2023-04-17T00:58:30.608Z,100944.91
2023-04-17T01:00:57.024Z,100952.47
2023-04-17T01:03:25.457Z,100944.91
2023-04-17T01:05:54.756Z,100949.69
2023-04-17T01:08:21.160Z,100949.69
2023-04-17T01:10:50.315Z,100954.03
2023-04-17T01:13:16.832Z,100953.25
2023-04-17T01:15:43.258Z,100956.81
2023-04-17T01:18:09.726Z,100950.47
2023-04-17T01:20:36.162Z,100940.13
2023-04-17T01:23:02.564Z,100954.84
2023-04-17T01:25:29.042Z,100957.66
2023-04-17T01:27:55.407Z,100949.28
2023-04-17T01:30:21.817Z,100956.03
2023-04-17T01:32:51.103Z,100956.81
2023-04-17T01:35:20.331Z,100954.03
2023-04-17T01:37:46.746Z,100957.66
2023-04-17T01:40:13.168Z,100948.47
2023-04-17T01:42:39.578Z,100951.25
2023-04-17T01:45:06.816Z,100954.84
2023-04-17T01:47:33.271Z,100961.59
2023-04-17T01:49:59.729Z,100953.25
2023-04-17T01:52:26.134Z,100954.03
2023-04-17T01:54:53.427Z,100963.22
2023-04-17T01:57:19.872Z,100960.44
2023-04-17T01:59:46.311Z,100960.44
2023-04-17T02:02:12.780Z,100946.50
2023-04-17T02:04:39.357Z,100960.44
2023-04-17T02:07:05.870Z,100968.78
2023-04-17T02:09:35.041Z,100962.41
2023-04-17T02:12:01.409Z,100955.66
2023-04-17T02:14:27.792Z,100957.66
2023-04-17T02:16:56.042Z,100963.22
2023-04-17T02:19:22.414Z,100957.66
2023-04-17T02:21:48.811Z,100964.78
2023-04-17T02:24:15.277Z,100965.59
2023-04-17T02:26:44.466Z,100962.00
2023-04-17T02:29:11.194Z,100950.88
2023-04-17T02:31:37.722Z,100959.22
2023-04-17T02:34:04.205Z,100962.81
2023-04-17T02:36:30.631Z,100964.00
2023-04-17T02:38:59.785Z,100971.97
2023-04-17T02:41:26.248Z,100965.59
2023-04-17T02:43:55.393Z,100968.38
2023-04-17T02:46:21.925Z,100973.13
2023-04-17T02:48:51.171Z,100968.78
2023-04-17T02:51:20.320Z,100977.53
2023-04-17T02:53:48.555Z,100970.34
2023-04-17T02:56:14.997Z,100970.34
2023-04-17T02:58:41.401Z,100974.75
2023-04-17T03:01:07.840Z,100977.53
2023-04-17T03:03:34.440Z,100971.97
2023-04-17T03:06:01.839Z,100973.94
2023-04-17T03:08:30.134Z,100971.16
2023-04-17T03:10:58.241Z,100981.50
2023-04-17T03:13:27.402Z,100980.31
2023-04-17T03:15:53.837Z,100983.09
2023-04-17T03:18:20.232Z,100986.25
2023-04-17T03:20:47.524Z,100992.63
2023-04-17T03:23:13.924Z,100996.22
2023-04-17T03:25:40.543Z,100994.22
2023-04-17T03:28:06.911Z,100999.78
2023-04-17T03:30:34.139Z,101000.59
2023-04-17T03:33:00.605Z,100999.78
2023-04-17T03:35:27.865Z,101005.34
2023-04-17T03:37:57.020Z,101003.38
2023-04-17T03:40:23.403Z,101001.38
2023-04-17T03:42:50.632Z,101002.56
2023-04-17T03:45:17.871Z,100999.78
2023-04-17T03:47:47.106Z,100998.59
2023-04-17T03:50:16.359Z,101008.53
2023-04-17T03:52:43.605Z,101012.50
2023-04-17T03:55:09.964Z,101014.09
2023-04-17T03:57:36.356Z,101015.72
2023-04-17T04:00:03.622Z,101019.69
2023-04-17T04:02:32.943Z,101016.91
2023-04-17T04:05:00.328Z,101022.84
2023-04-17T04:07:26.822Z,101024.84
2023-04-17T04:09:54.059Z,101016.50
2023-04-17T04:12:20.410Z,101024.06
2023-04-17T04:14:46.741Z,101034.38
2023-04-17T04:17:13.132Z,101031.59
2023-04-17T04:19:42.262Z,101037.97
2023-04-17T04:22:09.513Z,101044.34
2023-04-17T04:24:36.727Z,101050.31
2023-04-17T04:27:04.122Z,101044.34
2023-04-17T04:29:30.554Z,101045.13
2023-04-17T04:31:59.746Z,101054.25
2023-04-17T04:34:27.009Z,101050.69
2023-04-17T04:36:53.419Z,101057.06
2023-04-17T04:39:19.815Z,101061.03
2023-04-17T04:41:47.064Z,101059.03
2023-04-17T04:44:13.462Z,101061.03
2023-04-17T04:46:39.883Z,101061.03
2023-04-17T04:49:06.306Z,101069.41
2023-04-17T04:51:32.720Z,101063.03
2023-04-17T04:54:01.894Z,101066.22
2023-04-17T04:56:29.071Z,101069.00
2023-04-17T04:58:59.591Z,101060.66
2023-04-17T05:01:26.090Z,101066.22
2023-04-17T05:03:52.804Z,101058.66
2023-04-17T05:06:21.204Z,101063.03
2023-04-17T05:08:47.616Z,101058.25
2023-04-17T05:11:14.000Z,101059.44
2023-04-17T05:13:40.519Z,101067.41
2023-04-17T05:16:09.738Z,101063.81
2023-04-17T05:18:38.914Z,101065.41
2023-04-17T05:21:05.345Z,101065.00
2023-04-17T05:23:31.778Z,101062.22
2023-04-17T05:26:00.307Z,101070.59
2023-04-17T05:28:26.694Z,101068.19
2023-04-17T05:30:53.061Z,101067.78
2023-04-17T05:33:20.289Z,101071.41
2023-04-17T05:35:49.452Z,101074.97
2023-04-17T05:38:15.911Z,101069.41
2023-04-17T05:40:42.349Z,101077.75
2023-04-17T05:43:08.786Z,101072.19
2023-04-17T05:45:37.078Z,101079.38
2023-04-17T05:48:03.537Z,101083.72
2023-04-17T05:50:29.953Z,101080.16
2023-04-17T05:52:56.372Z,101078.94
2023-04-17T05:55:23.659Z,101073.81
2023-04-17T05:57:50.004Z,101077.38
2023-04-17T06:00:16.381Z,101068.22
2023-04-17T06:02:44.755Z,101074.59
2023-04-17T06:05:14.046Z,101083.72
2023-04-17T06:07:40.545Z,101087.34
2023-04-17T06:10:08.840Z,101085.72
2023-04-17T06:12:37.130Z,101090.13
2023-04-17T06:15:03.528Z,101089.31
2023-04-17T06:17:31.937Z,101087.34
2023-04-17T06:19:58.392Z,101090.13
2023-04-17T06:22:24.794Z,101084.94
2023-04-17T06:24:54.021Z,101085.75
2023-04-17T06:27:21.260Z,101081.34
2023-04-17T06:29:47.659Z,101089.69
2023-04-17T06:32:14.017Z,101092.09
2023-04-17T06:34:58.232Z,101087.34
2023-04-17T06:37:25.355Z,101085.75
2023-04-17T06:39:51.810Z,101092.91
2023-04-17T06:42:18.248Z,101090.91
2023-04-17T06:44:44.710Z,101086.53
2023-04-17T06:47:11.972Z,101091.72
2023-04-17T06:49:38.407Z,101091.72
2023-04-17T06:52:04.789Z,101099.69
2023-04-17T06:54:31.219Z,101094.91
2023-04-17T06:56:57.682Z,101106.03
2023-04-17T06:59:24.132Z,101100.47
2023-04-17T07:01:50.770Z,101103.25
2023-04-17T07:04:17.560Z,101104.88
2023-04-17T07:06:44.103Z,101103.69
2023-04-17T07:09:10.615Z,101109.25
2023-04-17T07:11:40.432Z,101106.47
2023-04-17T07:14:06.975Z,101112.03
2023-04-17T07:16:35.293Z,101117.19
2023-04-17T07:19:01.790Z,101110.44
2023-04-17T07:21:29.011Z,101126.34
2023-04-17T07:23:55.516Z,101121.97
2023-04-17T07:26:22.787Z,101129.91
2023-04-17T07:28:50.040Z,101128.31
2023-04-17T07:31:18.395Z,101134.69
2023-04-17T07:33:45.674Z,101131.53
2023-04-17T07:36:12.885Z,101127.16
2023-04-17T07:38:41.009Z,101126.34
2023-04-17T07:41:10.291Z,101131.94
2023-04-17T07:43:37.593Z,101132.72
2023-04-17T07:46:05.896Z,101140.28
2023-04-17T07:48:33.195Z,101138.28
2023-04-17T07:51:00.431Z,101135.13
2023-04-17T07:53:26.897Z,101138.69
2023-04-17T07:55:53.407Z,101140.28
2023-04-17T07:58:20.640Z,101144.66
2023-04-17T08:00:47.141Z,101137.13
2023-04-17T08:03:13.697Z,101131.56
2023-04-17T08:05:40.265Z,101147.06
2023-04-17T08:08:07.527Z,101142.31
2023-04-17T08:10:33.922Z,101135.91
2023-04-17T08:13:01.249Z,101143.88
2023-04-17T08:15:28.488Z,101145.88
2023-04-17T08:17:56.811Z,101154.22
2023-04-17T08:20:24.189Z,101155.00
2023-04-17T08:22:50.706Z,101160.97
2023-04-17T08:25:17.193Z,101157.00
2023-04-17T08:27:43.707Z,101159.78
2023-04-17T08:30:12.596Z,101170.88
2023-04-17T08:32:39.876Z,101172.81
2023-04-17T08:35:07.120Z,101167.09
2023-04-17T08:37:34.405Z,101167.00
2023-04-17T08:40:01.692Z,101171.06
2023-04-17T08:42:28.956Z,101174.59
2023-04-17T08:44:56.293Z,101176.13
2023-04-17T08:47:22.757Z,101178.13
2023-04-17T08:49:50.126Z,101181.69
2023-04-17T08:52:17.436Z,101181.22
2023-04-17T08:54:43.892Z,101184.84
2023-04-17T08:57:11.138Z,101185.09
2023-04-17T08:59:37.545Z,101191.06
2023-04-17T09:02:05.113Z,101194.81
2023-04-17T09:04:32.724Z,101186.56
2023-04-17T09:07:00.174Z,101194.38
2023-04-17T09:09:26.617Z,101181.75
2023-04-17T09:11:53.880Z,101190.88
2023-04-17T09:14:21.203Z,101188.38
2023-04-17T09:16:47.614Z,101193.16
2023-04-17T09:19:14.920Z,101200.34
2023-04-17T09:21:42.272Z,101190.78
2023-04-17T09:24:09.622Z,101203.56
2023-04-17T09:26:36.109Z,101202.28
2023-04-17T09:29:03.446Z,101198.34
2023-04-17T09:31:29.896Z,101196.81
2023-04-17T09:33:56.371Z,101205.16
2023-04-17T09:36:23.626Z,101201.13
2023-04-17T09:38:51.010Z,101203.38
2023-04-17T09:41:18.399Z,101198.22
2023-04-17T09:43:45.723Z,101203.31
2023-04-17T09:46:12.194Z,101197.66
2023-04-17T09:48:38.658Z,101200.59
2023-04-17T09:51:06.062Z,101197.88
2023-04-17T09:53:32.487Z,101193.25
2023-04-17T09:55:59.897Z,101189.38
2023-04-17T09:58:27.250Z,101197.16
2023-04-17T10:00:54.542Z,101190.00
2023-04-17T10:03:21.244Z,101195.03
2023-04-17T10:05:47.922Z,101198.84
2023-04-17T10:08:14.375Z,101194.28
2023-04-17T10:10:40.836Z,101199.97
2023-04-17T10:13:08.224Z,101197.63
2023-04-17T10:15:34.704Z,101198.75
2023-04-17T10:18:02.101Z,101200.66
2023-04-17T10:20:28.590Z,101193.84
2023-04-17T10:22:55.920Z,101194.22
2023-04-17T10:25:22.364Z,101191.03
2023-04-17T10:27:48.854Z,101192.66
2023-04-17T10:30:15.515Z,101193.06
2023-04-17T10:32:42.009Z,101195.75
2023-04-17T10:35:08.511Z,101194.59
2023-04-17T10:37:35.047Z,101190.56
2023-04-17T10:40:01.462Z,101192.16
2023-04-17T10:42:27.924Z,101183.44
2023-04-17T10:44:54.456Z,101188.63
2023-04-17T10:47:20.946Z,101186.97
2023-04-17T10:49:47.467Z,101182.56
2023-04-17T10:52:14.845Z,101186.97
2023-04-17T10:54:41.266Z,101179.06
2023-04-17T10:57:07.753Z,101177.13
2023-04-17T10:59:34.167Z,101176.22
2023-04-17T11:02:01.245Z,101176.63
2023-04-17T11:04:28.936Z,101175.47
2023-04-17T11:06:55.475Z,101170.34
2023-04-17T11:09:21.920Z,101176.31
2023-04-17T11:11:49.209Z,101170.72
2023-04-17T11:14:15.629Z,101173.13
2023-04-17T11:16:42.099Z,101177.50
2023-04-17T11:19:09.516Z,101175.00
2023-04-17T11:21:36.009Z,101174.19
2023-04-17T11:24:02.494Z,101183.75
2023-04-17T11:26:29.848Z,101174.13
2023-04-17T11:28:56.277Z,101176.59
2023-04-17T11:31:23.673Z,101175.03
2023-04-17T11:33:51.126Z,101174.22
2023-04-17T11:36:17.612Z,101171.50
2023-04-17T11:38:45.009Z,101183.81
2023-04-17T11:41:11.585Z,101175.84
2023-04-17T11:43:38.853Z,101178.97
2023-04-17T11:46:06.215Z,101172.72
2023-04-17T11:48:33.507Z,101176.00
2023-04-17T11:51:00.181Z,101174.13
2023-04-17T11:53:27.452Z,101172.97
2023-04-17T11:55:54.700Z,101171.41
2023-04-17T11:58:21.932Z,101169.03
2023-04-17T12:00:49.180Z,101169.44
2023-04-17T12:03:15.740Z,101171.81
2023-04-17T12:05:42.281Z,101165.50
2023-04-17T12:08:08.803Z,101169.50
2023-04-17T12:10:37.113Z,101172.28
2023-04-17T12:13:03.539Z,101169.91
2023-04-17T12:15:30.954Z,101173.09
2023-04-17T12:17:57.416Z,101171.09
2023-04-17T12:20:26.059Z,101171.94
2023-04-17T12:22:53.974Z,101179.47
2023-04-17T12:25:20.390Z,101177.50
2023-04-17T12:27:49.288Z,101179.47
2023-04-17T12:30:16.727Z,101172.75
2023-04-17T12:32:43.583Z,101181.09
2023-04-17T12:35:10.905Z,101180.28
2023-04-17T12:37:37.323Z,101181.09
2023-04-17T12:40:03.830Z,101178.31
2023-04-17T12:42:33.698Z,101178.31
2023-04-17T12:45:05.881Z,101183.88
2023-04-17T12:47:32.406Z,101187.44
2023-04-17T12:49:58.926Z,101189.06
2023-04-17T12:52:25.411Z,101184.28
2023-04-17T12:54:51.835Z,101187.06
2023-04-17T12:57:19.101Z,101193.03
2023-04-17T12:59:47.366Z,101188.28
2023-04-17T13:02:15.800Z,101192.66
2023-04-17T13:04:42.420Z,101193.06
2023-04-17T13:07:09.693Z,101184.72
2023-04-17T13:09:38.006Z,101187.09
2023-04-17T13:12:05.479Z,101187.09
2023-04-17T13:14:33.800Z,101185.94
2023-04-17T13:17:02.172Z,101183.16
2023-04-17T13:19:29.567Z,101176.38
2023-04-17T13:21:58.894Z,101176.38
2023-04-17T13:24:27.208Z,101172.78
2023-04-17T13:26:53.632Z,101169.22
2023-04-17T13:29:20.164Z,101173.97
2023-04-17T13:31:47.679Z,101172.41
2023-04-17T13:34:14.204Z,101169.63
2023-04-17T13:36:41.460Z,101172.78
2023-04-17T13:39:09.960Z,101183.13
2023-04-17T13:41:39.217Z,101181.50
2023-04-17T13:44:05.695Z,101182.31
2023-04-17T13:46:32.968Z,101181.13
2023-04-17T13:49:01.366Z,101190.28
2023-04-17T13:51:27.770Z,101191.09
2023-04-17T13:53:54.997Z,101191.09
2023-04-17T13:56:21.402Z,101189.09
2023-04-17T13:58:48.661Z,101194.66
2023-04-17T14:01:15.933Z,101190.28
2023-04-17T14:03:45.387Z,101188.31
2023-04-17T14:06:14.459Z,101187.94
2023-04-17T14:08:44.068Z,101189.91
2023-04-17T14:11:12.639Z,101193.91
2023-04-17T14:13:39.934Z,101192.31
2023-04-17T14:16:06.527Z,101187.53
2023-04-17T14:18:33.836Z,101182.78
2023-04-17T14:21:01.101Z,101185.56
2023-04-17T14:23:28.445Z,101185.56
2023-04-17T14:25:54.863Z,101187.53
2023-04-17T14:28:23.139Z,101185.56
2023-04-17T14:30:49.689Z,101180.00
2023-04-17T14:33:16.155Z,101178.38
2023-04-17T14:35:43.522Z,101183.94
2023-04-17T14:38:09.965Z,101183.16
2023-04-17T14:40:37.303Z,101190.31
2023-04-17T14:43:03.773Z,101192.31
2023-04-17T14:45:30.188Z,101182.78
2023-04-17T14:47:57.494Z,101183.56
2023-04-17T14:50:24.902Z,101183.56
2023-04-17T14:52:51.323Z,101183.56
2023-04-17T14:55:18.758Z,101174.03
2023-04-17T14:57:46.139Z,101182.38
2023-04-17T15:00:12.568Z,101188.75
2023-04-17T15:02:39.404Z,101197.09
2023-04-17T15:05:06.869Z,101189.91
2023-04-17T15:07:34.190Z,101194.69
2023-04-17T15:10:01.476Z,101191.91
2023-04-17T15:12:28.727Z,101204.22
2023-04-17T15:14:55.152Z,101191.50
2023-04-17T15:17:21.593Z,101199.06
2023-04-17T15:19:48.845Z,101203.81
2023-04-17T15:22:15.328Z,101195.84
2023-04-17T15:24:42.621Z,101204.22
2023-04-17T15:27:11.833Z,101198.66
2023-04-17T15:29:38.289Z,101195.84
2023-04-17T15:32:06.708Z,101200.25
2023-04-17T15:34:33.175Z,101201.44
2023-04-17T15:37:00.426Z,101195.84
2023-04-17T15:39:26.876Z,101193.91
2023-04-17T15:41:55.202Z,101189.50
2023-04-17T15:44:21.681Z,101192.28
2023-04-17T15:46:48.126Z,101192.28
2023-04-17T15:49:14.613Z,101192.66
2023-04-17T15:51:41.653Z,101189.88
2023-04-17T15:54:10.103Z,101186.31
2023-04-17T15:56:36.561Z,101200.22
2023-04-17T15:59:04.846Z,101197.84
2023-04-17T16:01:31.306Z,101199.44
2023-04-17T16:03:57.875Z,101203.41
2023-04-17T16:06:24.726Z,101202.22
2023-04-17T16:08:51.190Z,101195.06
2023-04-17T16:11:17.715Z,101200.22
2023-04-17T16:13:44.136Z,101208.59
2023-04-17T16:16:12.438Z,101204.19
2023-04-17T16:18:41.666Z,101215.31
2023-04-17T16:21:09.947Z,101215.31
2023-04-17T16:23:36.597Z,101210.59
2023-04-17T16:26:03.080Z,101216.16
2023-04-17T16:28:29.541Z,101214.53
2023-04-17T16:30:56.003Z,101216.53
2023-04-17T16:33:22.469Z,101224.06
2023-04-17T16:35:48.942Z,101226.06
2023-04-17T16:38:17.214Z,101222.47
2023-04-17T16:40:46.442Z,101228.84
2023-04-17T16:43:13.670Z,101225.25
2023-04-17T16:45:40.917Z,101229.22
2023-04-17T16:48:07.425Z,101238.78
2023-04-17T16:50:33.896Z,101230.44
2023-04-17T16:53:02.328Z,101235.19
2023-04-17T16:55:30.624Z,101231.22
2023-04-17T16:57:59.803Z,101241.94
2023-04-17T17:00:29.005Z,101242.75
2023-04-17T17:02:55.615Z,101243.91
2023-04-17T17:05:24.842Z,101243.91
2023-04-17T17:07:54.004Z,101249.88
2023-04-17T17:10:20.518Z,101245.13
2023-04-17T17:12:46.930Z,101260.19
2023-04-17T17:15:13.379Z,101260.19
2023-04-17T17:17:39.927Z,101262.16
2023-04-17T17:20:08.252Z,101263.78
2023-04-17T17:22:34.756Z,101260.19
2023-04-17T17:25:01.183Z,101262.97
2023-04-17T17:27:28.438Z,101267.75
2023-04-17T17:29:59.083Z,101253.81
2023-04-17T17:32:28.763Z,101266.94
2023-04-17T17:34:56.055Z,101264.94
2023-04-17T17:37:23.271Z,101260.19
2023-04-17T17:39:49.753Z,101270.16
2023-04-17T17:42:16.216Z,101268.97
2023-04-17T17:44:42.745Z,101276.13
2023-04-17T17:47:09.209Z,101286.09
2023-04-17T17:49:35.613Z,101284.09
2023-04-17T17:52:02.060Z,101280.16
2023-04-17T17:54:30.347Z,101279.34
2023-04-17T17:56:56.830Z,101287.31
2023-04-17T17:59:23.227Z,101284.53
2023-04-17T18:01:49.971Z,101287.31
2023-04-17T18:04:18.698Z,101294.47
2023-04-17T18:06:46.513Z,101296.44
2023-04-17T18:09:14.765Z,101291.69
2023-04-17T18:11:43.927Z,101289.69
2023-04-17T18:14:10.514Z,101289.69
2023-04-17T18:16:37.190Z,101297.66
2023-04-17T18:19:03.751Z,101302.44
2023-04-17T18:21:30.181Z,101298.47
2023-04-17T18:23:59.298Z,101304.81
2023-04-17T18:26:26.119Z,101301.25
2023-04-17T18:28:55.242Z,101307.59
2023-04-17T18:31:21.919Z,101310.38
2023-04-17T18:33:48.398Z,101313.16
2023-04-17T18:36:14.880Z,101310.38
2023-04-17T18:38:43.108Z,101312.78
2023-04-17T18:41:09.531Z,101310.38
2023-04-17T18:43:37.921Z,101315.56
2023-04-17T18:46:07.174Z,101313.59
2023-04-17T18:48:36.414Z,101319.97
2023-04-17T18:51:02.829Z,101313.59
2023-04-17T18:53:29.305Z,101310.81
2023-04-17T18:55:55.740Z,101325.53
2023-04-17T18:58:24.890Z,101319.97
2023-04-17T19:00:51.342Z,101324.75
2023-04-17T19:03:20.521Z,101326.31
2023-04-17T19:05:47.915Z,101327.94
2023-04-17T19:08:14.399Z,101323.53
2023-04-17T19:10:42.636Z,101319.97
2023-04-17T19:13:09.058Z,101329.09
2023-04-17T19:15:35.466Z,101327.94
2023-04-17T19:18:02.752Z,101321.56
2023-04-17T19:20:30.035Z,101316.00
2023-04-17T19:22:57.592Z,101330.72
2023-04-17T19:25:23.984Z,101331.50
2023-04-17T19:27:53.113Z,101329.50
2023-04-17T19:30:19.487Z,101328.72
2023-04-17T19:32:45.887Z,101330.72
2023-04-17T19:35:12.440Z,101335.50
2023-04-17T19:37:39.694Z,101336.28
2023-04-17T19:40:14.157Z,101328.72
2023-04-17T19:42:48.281Z,101323.94
2023-04-17T19:45:17.461Z,101334.28
2023-04-17T19:47:46.607Z,101335.91
2023-04-17T19:50:15.738Z,101329.50
2023-04-17T19:52:42.130Z,101332.31
2023-04-17T19:55:09.490Z,101330.34
2023-04-17T19:57:35.876Z,101325.94
2023-04-17T20:00:03.100Z,101337.47
2023-04-17T20:02:32.415Z,101333.13
2023-04-17T20:05:00.734Z,101327.56
2023-04-17T20:07:27.976Z,101329.13
2023-04-17T20:09:54.394Z,101329.13
2023-04-17T20:12:20.863Z,101332.72
2023-04-17T20:14:51.661Z,101334.31
2023-04-17T20:17:21.138Z,101336.31
2023-04-17T20:19:47.756Z,101333.13
2023-04-17T20:22:14.069Z,101335.91
2023-04-17T20:24:43.266Z,101342.25
2023-04-17T20:27:09.689Z,101340.28
2023-04-17T20:29:36.120Z,101344.66
2023-04-17T20:32:04.168Z,101345.44
2023-04-17T20:34:31.541Z,101344.66
2023-04-17T20:36:58.994Z,101343.88
2023-04-17T20:39:25.639Z,101343.88
2023-04-17T20:41:53.194Z,101341.09
2023-04-17T20:44:22.674Z,101339.09
2023-04-17T20:46:49.147Z,101339.09
2023-04-17T20:49:17.544Z,101345.84
2023-04-17T20:51:45.829Z,101343.88
2023-04-17T20:54:15.173Z,101351.03
2023-04-17T20:56:41.695Z,101350.22
2023-04-17T20:59:08.128Z,101342.66
2023-04-17T21:01:34.546Z,101351.03
2023-04-17T21:04:01.055Z,101353.03
2023-04-17T21:06:27.528Z,101357.41
2023-04-17T21:08:53.995Z,101360.19
2023-04-17T21:11:20.482Z,101357.41
2023-04-17T21:13:46.828Z,101353.81
2023-04-17T21:16:13.342Z,101364.56
2023-04-17T21:18:39.777Z,101366.56
2023-04-17T21:21:06.239Z,101363.78
2023-04-17T21:23:32.647Z,101364.56
2023-04-17T21:25:59.079Z,101362.97
2023-04-17T21:28:25.488Z,101374.13
2023-04-17T21:30:51.960Z,101368.56
2023-04-17T21:33:21.173Z,101369.34
2023-04-17T21:35:47.592Z,101365.75
2023-04-17T21:38:14.010Z,101361.00
2023-04-17T21:40:50.581Z,101361.78
2023-04-17T21:43:17.905Z,101363.78
2023-04-17T21:45:44.283Z,101362.97
2023-04-17T21:48:13.462Z,101370.91
2023-04-17T21:50:39.885Z,101367.34
2023-04-17T21:53:06.310Z,101363.38
2023-04-17T21:55:32.806Z,101365.34
2023-04-17T21:57:59.233Z,101367.34
2023-04-17T22:00:25.645Z,101365.75
2023-04-17T22:02:54.057Z,101376.50
2023-04-17T22:05:21.423Z,101365.34
2023-04-17T22:07:54.749Z,101361.78
2023-04-17T22:10:21.665Z,101363.38
2023-04-17T22:12:48.902Z,101360.59
2023-04-17T22:15:18.071Z,101368.13
2023-04-17T22:17:44.569Z,101364.56
2023-04-17T22:20:11.006Z,101365.34
2023-04-17T22:22:39.282Z,101370.91
2023-04-17T22:25:05.697Z,101365.34
2023-04-17T22:27:32.123Z,101364.56
2023-04-17T22:29:58.545Z,101368.13
2023-04-17T22:32:25.005Z,101368.97
2023-04-17T22:34:53.345Z,101367.75
2023-04-17T22:37:19.792Z,101377.31
2023-04-17T22:39:46.201Z,101376.09
2023-04-17T22:42:12.602Z,101378.09
2023-04-17T22:44:38.953Z,101375.31
2023-04-17T22:47:06.252Z,101374.16
2023-04-17T22:49:33.485Z,101382.50
2023-04-17T22:51:59.893Z,101376.94
2023-04-17T22:54:26.414Z,101372.16
2023-04-17T22:56:52.896Z,101381.69
2023-04-17T22:59:19.385Z,101376.94
2023-04-17T23:01:47.649Z,101376.09
2023-04-17T23:04:16.866Z,101376.09
2023-04-17T23:06:45.138Z,101367.75
2023-04-17T23:09:11.558Z,101367.75
2023-04-17T23:11:37.895Z,101363.00
2023-04-17T23:14:04.314Z,101370.53
2023-04-17T23:16:31.609Z,101363.00
2023-04-17T23:18:58.094Z,101371.34
2023-04-17T23:21:24.453Z,101371.34
2023-04-17T23:23:50.802Z,101362.19
2023-04-17T23:26:18.082Z,101365.78
2023-04-17T23:28:45.309Z,101363.00
2023-04-17T23:31:14.445Z,101366.59
2023-04-17T23:33:41.683Z,101365.78
2023-04-17T23:36:08.051Z,101363.78
2023-04-17T23:38:37.217Z,101366.59
2023-04-17T23:41:03.590Z,101367.38
2023-04-17T23:43:30.044Z,101362.59
2023-04-17T23:45:59.190Z,101361.00
2023-04-17T23:48:25.585Z,101368.56
2023-04-17T23:50:51.967Z,101370.16
2023-04-17T23:53:18.339Z,101363.78
2023-04-17T23:55:44.731Z,101366.59
2023-04-17T23:58:11.937Z,101364.59
